Katy, TX

12:39 AM CDT on September 19, 2014 (GMT -0500)
Waterstone | Change Station
CLOSE
Current Station
Personal Weather Station
Location: Katy, TX
Elevation: 135 ft
Nearby Weather Stations
Active Advisory: Areal Flood Watch Active Notice: Local Storm Report

Elev 135 ft 29.82 °N, 95.76 °W | Updated 10 minutes ago

Mostly Cloudy
Mostly Cloudy
75.2 °F
Feels Like 74 °F
N
0.0
Wind Variable Wind from West

Today
High -- | Low -- °F
--% Chance of Precip.
Yesterday
High -- | Low -- °F
Precip. -- in
7:09 AM 7:23 PM
Waning Crescent, 21% visible
Pressure 29.89 in
Visibility 10.0 miles
Clouds Overcast 1900 ft
Heat Index 74 °F
Dew Point 74 °F
Humidity 95%
Rainfall 0.00 in
Snow Depth Not available.
UV 0 out of 12
Pollen 1.00 out of 12
PM2.5 Good
Flu Activity Not available.
METAR KTME 190535Z AUTO 04003KT 10SM OVC019 24/24 A2989 RMK AO2

More Conditions Fewer Conditions

Pressure 29.89 in
Visibility 10.0 miles
Clouds Overcast 1900 ft
Heat Index 74 °F
Dew Point 74 °F
Humidity 95%
Rainfall 0.00 in
Snow Depth Not available.
UV 0 out of 12
Pollen 1.00 out of 12
PM2.5 Good
Flu Activity Not available.
METAR KTME 190535Z AUTO 04003KT 10SM OVC019 24/24 A2989 RMK AO2

More Conditions Fewer Conditions

10-Day Weather Forecast

Almanac

Astronomy

Sep. 19, 2014 Rise Set
Actual Time 7:09 AM CDT 7:23 PM CDT
Civil Twilight 6:45 AM CDT 7:47 PM CDT
Nautical Twilight 6:17 AM CDT 8:14 PM CDT
Astronomical Twilight 5:49 AM CDT 8:42 PM CDT
Moon 3:10 AM CDT 4:39 PM CDT
Length of Visible Light 13h 01m
Length of Day
12h 13m
Tomorrow will be 1m 47s shorter.
Waning Crescent, 21% of the Moon is Illuminated
Today
Waning Crescent
Sep 24
New
Oct 1
First Quarter
Oct 8
Full
Oct 15
Last Quarter

Today's Extremes

State Highs State Lows

Community

WunderPhotos

Upload Photos

1,754,573 photos uploaded!

Nearby

Air Quality

  Air Quality AQ Index Pollutant
Yesterday Good
PM2.5
Yesterday Good
OZONE
Current Good
PM2.5
Thursday Good
OZONE
Thursday Good
PM10
Friday Good
OZONE
Friday Good
PM10
Saturday Good
OZONE
Saturday Good
PM10
Sunday Good
OZONE
Sunday Good
PM10

Snow Depth

Station Depth Elevation
No new snow has been reported.

Earthquake Activity

City Distance Mag. Time & Date
No recent earthquake activity has been reported nearby.
Minimum magnitude displayed is 2.5.

Coastal Water Temperatures

Place Temperature
No Stations Reporting

Nearby Weather Stations